Time;durP1;ratioP1;P1;durP2;ratioP2;P2;SDS_P1;SDS_P2;PMS_P1;PMS_P2;Temp;Humidity;BMP_temperature;BMP_pressure;BME280_temperature;BME280_humidity;BME280_pressure;Samples;Min_cycle;Max_cycle;Signal;HPM_P1;HPM_P2
2022/06/17 00:02:02;;;;;;;11.77;9.57;;;;;;;17.56;100.00;100155.31;6241494;22;20012;-82
2022/06/17 00:04:27;;;;;;;9.82;8.77;;;;;;;17.45;100.00;100140.31;6215023;23;20035;-83
2022/06/17 00:06:59;;;;;;;10.93;9.02;;;;;;;17.38;100.00;100141.47;6242340;23;20012;-83
2022/06/17 00:09:27;;;;;;;12.25;9.20;;;;;;;17.41;100.00;100129.28;6217014;23;20522;-83
2022/06/17 00:11:53;;;;;;;10.48;9.23;;;;;;;17.36;100.00;100143.97;6216327;23;20080;-82
2022/06/17 00:14:21;;;;;;;9.45;8.45;;;;;;;17.39;100.00;100159.06;6242842;23;20012;-82
2022/06/17 00:16:48;;;;;;;10.85;9.38;;;;;;;17.36;100.00;100146.75;6242681;23;20012;-82
2022/06/17 00:19:14;;;;;;;9.88;8.88;;;;;;;17.43;100.00;100165.25;6216122;23;20086;-82
2022/06/17 00:21:44;;;;;;;13.63;11.20;;;;;;;17.46;100.00;100162.25;6242451;23;20012;-82
2022/06/17 00:24:24;;;;;;;11.40;10.30;;;;;;;17.38;100.00;100160.31;6240998;23;20486;-82
2022/06/17 00:26:50;;;;;;;11.25;10.25;;;;;;;17.31;100.00;100169.84;6243755;23;20067;-82
2022/06/17 00:29:18;;;;;;;12.40;10.20;;;;;;;17.22;100.00;100164.34;6191965;23;20151;-82
2022/06/17 00:31:44;;;;;;;12.20;10.65;;;;;;;17.06;100.00;100153.56;6242934;23;20018;-82
2022/06/17 00:34:10;;;;;;;11.45;10.10;;;;;;;16.87;100.00;100163.34;6243408;23;20100;-82
2022/06/17 00:36:36;;;;;;;12.20;10.77;;;;;;;16.82;100.00;100169.63;6243782;23;20008;-82
2022/06/17 00:39:05;;;;;;;13.50;11.80;;;;;;;16.73;100.00;100162.81;6243374;23;20000;-82
2022/06/17 00:41:34;;;;;;;12.50;11.20;;;;;;;16.76;100.00;100170.25;6191489;23;20070;-82
2022/06/17 00:44:07;;;;;;;11.85;10.65;;;;;;;16.83;100.00;100160.72;6216154;23;20011;-82
2022/06/17 00:46:41;;;;;;;14.63;11.47;;;;;;;16.87;100.00;100166.91;6216513;23;20016;-82
2022/06/17 00:49:10;;;;;;;11.50;10.40;;;;;;;16.95;100.00;100164.53;6215527;23;20012;-82
2022/06/17 00:51:41;;;;;;;10.82;9.73;;;;;;;16.97;100.00;100162.03;6215727;23;20016;-83
2022/06/17 00:54:21;;;;;;;12.93;9.23;;;;;;;17.04;100.00;100172.88;6192348;23;20038;-83
2022/06/17 00:56:47;;;;;;;9.65;8.75;;;;;;;17.06;100.00;100176.00;6216498;23;20464;-83
2022/06/17 00:59:13;;;;;;;10.68;8.98;;;;;;;17.12;100.00;100174.84;6242614;23;20012;-83
2022/06/17 01:01:39;;;;;;;12.18;9.38;;;;;;;17.14;100.00;100174.38;6214109;23;20008;-83
2022/06/17 01:04:05;;;;;;;11.70;8.20;;;;;;;17.10;100.00;100165.38;6215759;23;20023;-84
2022/06/17 01:06:36;;;;;;;9.10;8.20;;;;;;;17.14;100.00;100165.97;6215405;23;20038;-84
2022/06/17 01:12:05;;;;;;;8.65;7.75;;;;;;;17.15;100.00;100161.88;6215818;23;20101;-83
2022/06/17 01:14:31;;;;;;;10.00;7.63;;;;;;;17.11;100.00;100155.69;6215213;23;20019;-84
2022/06/17 01:16:59;;;;;;;8.57;7.63;;;;;;;17.10;100.00;100156.97;6215794;23;20079;-83
2022/06/17 01:19:46;;;;;;;9.18;7.78;;;;;;;17.04;100.00;100159.63;6191729;23;20005;-83
2022/06/17 01:22:26;;;;;;;10.18;7.72;;;;;;;17.03;100.00;100177.69;6215296;23;20430;-83
2022/06/17 01:25:07;;;;;;;9.03;8.10;;;;;;;17.01;100.00;100171.03;6215618;23;20031;-83
2022/06/17 01:27:40;;;;;;;9.63;8.63;;;;;;;16.90;100.00;100165.19;6214351;23;20099;-83
2022/06/17 01:30:09;;;;;;;10.20;8.98;;;;;;;16.94;100.00;100174.22;6190858;23;20098;-83
2022/06/17 01:32:37;;;;;;;9.32;8.43;;;;;;;16.91;100.00;100175.91;6242393;23;20004;-83
2022/06/17 01:35:04;;;;;;;11.98;9.10;;;;;;;16.82;100.00;100172.41;6214132;23;20048;-83
2022/06/17 01:37:30;;;;;;;9.40;8.50;;;;;;;16.84;100.00;100183.91;6214690;23;20000;-83
2022/06/17 01:39:57;;;;;;;9.70;8.80;;;;;;;16.82;100.00;100178.03;6190677;23;20323;-83
2022/06/17 01:42:23;;;;;;;10.77;8.50;;;;;;;16.77;100.00;100171.81;6242536;23;20353;-83
2022/06/17 01:44:52;;;;;;;10.25;8.98;;;;;;;16.77;100.00;100160.63;6165794;23;20091;-83
2022/06/17 01:47:21;;;;;;;9.73;8.73;;;;;;;16.79;100.00;100180.50;6215570;23;20350;-83
2022/06/17 01:49:51;;;;;;;10.95;8.93;;;;;;;16.75;100.00;100179.13;6216183;23;20011;-83
2022/06/17 01:52:21;;;;;;;10.02;9.02;;;;;;;16.68;100.00;100183.06;6242240;23;20016;-83
2022/06/17 01:54:54;;;;;;;9.10;8.23;;;;;;;16.68;100.00;100179.50;6190796;23;20040;-83
2022/06/17 01:57:28;;;;;;;10.15;8.80;;;;;;;16.67;100.00;100178.72;6214915;23;20040;-83
2022/06/17 02:00:05;;;;;;;12.85;8.88;;;;;;;16.70;100.00;100183.34;6191047;23;20039;-83
2022/06/17 02:02:42;;;;;;;9.38;8.38;;;;;;;16.68;100.00;100177.47;6210296;23;20336;-83
2022/06/17 02:05:09;;;;;;;8.65;7.85;;;;;;;16.70;100.00;100177.75;6211728;23;20012;-83
2022/06/17 02:07:42;;;;;;;9.48;8.30;;;;;;;16.73;100.00;100182.44;6186004;23;20009;-83
2022/06/17 02:10:07;;;;;;;10.25;8.43;;;;;;;16.73;100.00;100171.22;6210584;23;20044;-83
2022/06/17 02:12:37;;;;;;;8.45;7.65;;;;;;;16.73;100.00;100168.41;6186104;23;20035;-83
2022/06/17 02:15:08;;;;;;;10.52;8.32;;;;;;;16.67;100.00;100161.91;6186890;23;20017;-83
2022/06/17 02:18:02;;;;;;;10.50;8.47;;;;;;;16.66;100.00;100134.41;6184522;23;20435;-83
2022/06/17 02:20:37;;;;;;;11.07;7.88;;;;;;;16.70;100.00;100160.94;6187099;23;20012;-83
2022/06/17 02:23:03;;;;;;;9.65;8.00;;;;;;;16.70;100.00;100166.56;6185704;23;20036;-83
2022/06/17 02:25:34;;;;;;;14.57;8.18;;;;;;;16.69;100.00;100173.44;6185362;23;20008;-83
2022/06/17 02:28:01;;;;;;;10.55;8.10;;;;;;;16.64;100.00;100173.28;6210472;23;20439;-82
2022/06/17 02:30:28;;;;;;;11.13;7.85;;;;;;;16.67;100.00;100177.94;6210266;23;20013;-82
2022/06/17 02:32:59;;;;;;;11.80;7.25;;;;;;;16.60;100.00;100184.66;6212188;23;20005;-82
2022/06/17 02:35:44;;;;;;;7.90;7.10;;;;;;;16.59;100.00;100177.50;6210167;23;20019;-81
2022/06/17 02:38:15;;;;;;;10.57;6.95;;;;;;;16.55;100.00;100187.31;6211747;23;20103;-82
2022/06/17 02:40:45;;;;;;;8.38;6.30;;;;;;;16.48;100.00;100187.66;6209964;23;20016;-82
2022/06/17 02:43:14;;;;;;;10.27;6.57;;;;;;;16.46;100.00;100195.78;6212792;23;20015;-82
2022/06/17 02:45:42;;;;;;;7.60;6.20;;;;;;;16.46;100.00;100192.97;6211859;23;20035;-82
2022/06/17 02:48:31;;;;;;;11.00;6.72;;;;;;;16.41;100.00;100194.38;6185913;23;20008;-83
2022/06/17 02:50:59;;;;;;;9.02;6.18;;;;;;;16.41;100.00;100199.97;6210544;23;20024;-83
2022/06/17 02:53:31;;;;;;;10.27;7.13;;;;;;;16.36;100.00;100206.22;6208304;23;20048;-83
2022/06/17 02:55:58;;;;;;;7.28;6.53;;;;;;;16.33;100.00;100195.97;6185725;23;20017;-82
2022/06/17 02:58:42;;;;;;;11.60;6.63;;;;;;;16.28;100.00;100205.00;6185640;23;20020;-83
2022/06/17 03:01:16;;;;;;;10.90;5.60;;;;;;;16.28;100.00;100196.59;6213632;23;20059;-83
2022/06/17 03:03:43;;;;;;;9.13;5.68;;;;;;;16.28;100.00;100197.38;6186799;23;20020;-83
2022/06/17 03:06:20;;;;;;;8.13;5.40;;;;;;;16.31;100.00;100192.84;6162060;23;20012;-83
2022/06/17 03:08:48;;;;;;;10.30;5.85;;;;;;;16.18;100.00;100187.47;6210708;23;20009;-83
2022/06/17 03:11:15;;;;;;;11.10;5.82;;;;;;;16.16;100.00;100189.97;6187698;23;20040;-83
2022/06/17 03:13:49;;;;;;;10.02;6.60;;;;;;;16.07;100.00;100176.00;6212417;23;20004;-83
2022/06/17 03:16:15;;;;;;;10.25;6.75;;;;;;;16.15;100.00;100188.41;6212979;23;20040;-83
2022/06/17 03:18:43;;;;;;;10.00;7.05;;;;;;;16.17;100.00;100193.53;6211454;23;20047;-83
2022/06/17 03:21:08;;;;;;;9.70;7.03;;;;;;;16.20;100.00;100195.41;6186731;23;20017;-83
2022/06/17 03:23:56;;;;;;;9.95;7.13;;;;;;;16.20;100.00;100189.78;6210859;23;20016;-84
2022/06/17 03:26:25;;;;;;;7.78;6.55;;;;;;;16.16;100.00;100191.97;6187727;23;20016;-84
2022/06/17 03:28:51;;;;;;;8.63;5.88;;;;;;;16.16;100.00;100186.38;6187275;23;20071;-84
2022/06/17 03:31:21;;;;;;;7.82;7.03;;;;;;;16.18;100.00;100181.09;6214202;23;20017;-84
2022/06/17 03:34:11;;;;;;;11.05;7.03;;;;;;;16.18;100.00;100187.47;6211921;23;20443;-84
2022/06/17 03:36:45;;;;;;;10.25;6.57;;;;;;;16.21;100.00;100191.34;6211320;23;20036;-84
2022/06/17 03:39:15;;;;;;;9.43;6.90;;;;;;;16.26;100.00;100190.69;6211241;23;20009;-84
2022/06/17 03:41:49;;;;;;;10.52;7.50;;;;;;;16.30;100.00;100196.91;6186713;23;20461;-84
2022/06/17 03:44:18;;;;;;;8.60;7.13;;;;;;;16.25;100.00;100186.38;6212472;23;20378;-84
2022/06/17 03:47:04;;;;;;;10.05;6.93;;;;;;;16.29;100.00;100189.78;6211832;23;20000;-84
2022/06/17 03:49:41;;;;;;;7.88;6.68;;;;;;;16.28;100.00;100186.19;6186043;23;20439;-83
2022/06/17 03:52:39;;;;;;;8.13;6.60;;;;;;;16.37;100.00;100193.78;6211419;23;20458;-83
2022/06/17 03:55:17;;;;;;;7.30;6.07;;;;;;;16.41;100.00;100191.59;6187358;23;20016;-83
2022/06/17 03:57:49;;;;;;;7.30;5.15;;;;;;;16.45;100.00;100211.78;6186885;23;20019;-83
2022/06/17 04:00:28;;;;;;;8.98;6.10;;;;;;;16.47;100.00;100198.06;6187886;23;20012;-84
2022/06/17 04:02:53;;;;;;;10.13;5.90;;;;;;;16.43;100.00;100211.47;6211840;23;20492;-83
2022/06/17 04:05:23;;;;;;;11.27;6.38;;;;;;;16.40;100.00;100204.03;6187249;23;20347;-83
2022/06/17 04:07:49;;;;;;;7.80;5.80;;;;;;;16.38;100.00;100200.91;6213377;23;20019;-84
2022/06/17 04:10:22;;;;;;;7.63;5.55;;;;;;;16.36;100.00;100203.41;6212023;23;20009;-83
2022/06/17 04:12:52;;;;;;;8.40;5.47;;;;;;;16.35;100.00;100207.47;6186505;23;20083;-84
2022/06/17 04:15:32;;;;;;;7.18;4.80;;;;;;;16.37;100.00;100210.56;6210988;23;20012;-83
2022/06/17 04:17:58;;;;;;;6.65;4.20;;;;;;;16.43;100.00;100199.50;6186750;23;20094;-83
2022/06/17 04:20:40;;;;;;;5.85;4.20;;;;;;;16.47;100.00;100209.28;6212060;23;20386;-82
2022/06/17 04:23:16;;;;;;;7.07;5.07;;;;;;;16.56;100.00;100195.25;6187213;23;20443;-82
2022/06/17 04:26:28;;;;;;;6.07;4.90;;;;;;;16.67;100.00;100203.13;6189168;23;20016;-82
2022/06/17 04:29:05;;;;;;;6.30;4.45;;;;;;;16.75;100.00;100207.16;6187470;23;20013;-82
2022/06/17 04:31:33;;;;;;;9.20;5.38;;;;;;;16.89;100.00;100211.28;6186847;23;20058;-82
2022/06/17 04:34:06;;;;;;;;;;;;;;;16.98;100.00;100205.63;6211701;23;20335;-82
2022/06/17 04:36:45;;;;;;;6.55;3.90;;;;;;;17.07;100.00;100197.91;6211093;23;19916;-83
2022/06/17 04:39:17;;;;;;;5.55;4.25;;;;;;;17.14;100.00;100199.59;6211630;23;20414;-82
2022/06/17 04:41:49;;;;;;;5.85;4.25;;;;;;;17.18;100.00;100194.59;6211643;23;20519;-82
2022/06/17 04:44:30;;;;;;;5.47;4.55;;;;;;;17.23;100.00;100188.28;6189421;23;20013;-81
2022/06/17 04:47:01;;;;;;;7.38;4.72;;;;;;;17.24;100.00;100203.88;6211247;23;20013;-82
2022/06/17 04:49:59;;;;;;;6.50;4.25;;;;;;;17.24;100.00;100206.66;6204646;23;20021;-82
2022/06/17 04:52:48;;;;;;;6.43;5.10;;;;;;;17.23;100.00;100213.53;6188143;23;20071;-82
2022/06/17 04:55:32;;;;;;;4.90;4.40;;;;;;;17.23;100.00;100219.13;6213215;23;20016;-82
2022/06/17 04:58:10;;;;;;;5.32;4.50;;;;;;;17.25;100.00;100225.03;6211352;23;20347;-82
2022/06/17 05:00:36;;;;;;;6.40;4.45;;;;;;;17.27;100.00;100233.00;6186189;23;20020;-82
2022/06/17 05:03:01;;;;;;;7.88;4.57;;;;;;;17.30;100.00;100237.63;6210455;23;20047;-82
2022/06/17 05:05:37;;;;;;;6.22;4.20;;;;;;;17.36;100.00;100221.69;6211958;23;20008;-82
2022/06/17 05:08:32;;;;;;;5.22;3.90;;;;;;;17.48;100.00;100217.84;6212124;23;20009;-82
2022/06/17 05:11:01;;;;;;;6.63;4.65;;;;;;;17.64;100.00;100214.63;6187198;23;20019;-81
2022/06/17 05:13:36;;;;;;;5.60;4.00;;;;;;;17.80;100.00;100231.00;6211843;23;20010;-81
2022/06/17 05:16:02;;;;;;;5.97;4.00;;;;;;;17.89;100.00;100224.53;6187281;23;20020;-81
2022/06/17 05:18:28;;;;;;;4.90;3.97;;;;;;;18.00;100.00;100236.72;6210550;23;20031;-82
2022/06/17 05:21:07;;;;;;;4.20;3.80;;;;;;;18.03;100.00;100229.38;6211727;23;20021;-82
2022/06/17 05:23:33;;;;;;;6.78;4.32;;;;;;;18.10;100.00;100248.66;6209776;23;20043;-82
2022/06/17 05:26:00;;;;;;;7.03;4.30;;;;;;;18.09;100.00;100249.91;6185798;23;20450;-82
2022/06/17 05:28:26;;;;;;;8.10;4.72;;;;;;;18.10;100.00;100257.06;6210651;23;20009;-81
2022/06/17 05:30:59;;;;;;;;;;;;;;;18.04;100.00;100265.38;6211814;23;20020;-80
2022/06/17 05:33:43;;;;;;;8.40;5.75;;;;;;;17.99;100.00;100268.88;6188481;23;19915;-82
2022/06/17 05:36:10;;;;;;;7.78;5.68;;;;;;;17.96;100.00;100274.66;6210247;23;20016;-80
2022/06/17 05:38:35;;;;;;;8.07;5.53;;;;;;;17.96;100.00;100275.44;6209555;23;20127;-80
2022/06/17 05:41:01;;;;;;;7.40;5.50;;;;;;;18.01;100.00;100265.56;6210296;23;20360;-80
2022/06/17 05:43:28;;;;;;;6.07;5.38;;;;;;;18.14;100.00;100268.88;6210104;23;20104;-80
2022/06/17 05:45:54;;;;;;;6.30;5.57;;;;;;;18.29;100.00;100280.88;6211442;23;20091;-81
2022/06/17 05:48:30;;;;;;;6.05;5.43;;;;;;;18.54;100.00;100262.69;6212962;23;20423;-81
2022/06/17 05:51:19;;;;;;;7.45;5.20;;;;;;;18.91;100.00;100274.25;6200454;23;20017;-80
2022/06/17 05:54:03;;;;;;;7.32;5.20;;;;;;;19.29;100.00;100282.44;6209407;23;20165;-82
2022/06/17 05:56:39;;;;;;;6.15;5.00;;;;;;;19.60;100.00;100283.91;6211019;23;20017;-81
2022/06/17 05:59:05;;;;;;;9.07;5.60;;;;;;;19.93;100.00;100278.66;6211206;23;20017;-81
2022/06/17 06:01:31;;;;;;;8.77;5.60;;;;;;;20.26;98.76;100286.66;6211429;23;20373;-81
2022/06/17 06:03:57;;;;;;;8.15;6.03;;;;;;;20.45;97.36;100277.41;6243040;23;20088;-81
2022/06/17 06:06:23;;;;;;;5.68;5.00;;;;;;;20.81;94.80;100289.19;6216337;23;20016;-81
2022/06/17 06:08:52;;;;;;;6.80;5.35;;;;;;;21.07;92.73;100281.41;6216061;23;20036;-81
2022/06/17 06:11:18;;;;;;;9.55;5.22;;;;;;;21.24;90.81;100299.25;6243090;23;20042;-82
2022/06/17 06:13:44;;;;;;;7.95;5.70;;;;;;;21.27;89.45;100309.50;6243230;23;20065;-81
2022/06/17 06:16:11;;;;;;;7.50;5.50;;;;;;;21.29;90.77;100300.56;6216322;23;20008;-81
2022/06/17 06:18:45;;;;;;;7.55;5.65;;;;;;;21.30;88.45;100311.34;6217362;23;20016;-81
2022/06/17 06:21:17;;;;;;;7.07;5.57;;;;;;;21.26;87.95;100316.44;6216254;23;20023;-81
2022/06/17 06:23:44;;;;;;;7.80;5.13;;;;;;;21.31;89.04;100321.34;6215821;23;20012;-81
2022/06/17 06:26:16;;;;;;;6.38;5.63;;;;;;;21.42;87.59;100314.22;6216604;23;20019;-81
2022/06/17 06:28:45;;;;;;;9.48;5.20;;;;;;;21.66;85.95;100317.41;6215872;23;20778;-81
2022/06/17 06:31:32;;;;;;;7.60;4.90;;;;;;;21.96;84.63;100318.56;6216318;23;20394;-81
2022/06/17 06:34:00;;;;;;;7.70;5.13;;;;;;;22.12;82.33;100320.66;6217047;23;20008;-82
2022/06/17 06:36:30;;;;;;;5.18;4.65;;;;;;;22.36;81.72;100317.38;6216802;23;20015;-81
2022/06/17 06:38:57;;;;;;;5.85;4.47;;;;;;;22.57;81.33;100323.56;6166052;23;20020;-81
2022/06/17 06:41:23;;;;;;;7.55;5.05;;;;;;;22.70;80.35;100329.50;6243225;23;20030;-81
2022/06/17 06:43:51;;;;;;;6.15;4.68;;;;;;;22.76;80.51;100333.91;6190949;23;20051;-81
2022/06/17 06:46:35;;;;;;;6.32;4.90;;;;;;;22.76;79.17;100330.28;6242700;23;20095;-81
2022/06/17 06:49:02;;;;;;;5.13;4.60;;;;;;;22.46;79.03;100334.84;6215748;23;20016;-81
2022/06/17 06:51:30;;;;;;;6.70;4.70;;;;;;;21.96;80.49;100340.41;6216382;23;20012;-81
2022/06/17 06:53:56;;;;;;;5.65;4.72;;;;;;;21.86;79.40;100353.94;6242249;23;20038;-81
2022/06/17 06:56:22;;;;;;;7.28;5.20;;;;;;;21.60;81.35;100362.53;6214705;23;20001;-82
2022/06/17 06:58:47;;;;;;;9.45;5.20;;;;;;;21.50;82.41;100349.94;6215267;23;20827;-81
2022/06/17 07:01:13;;;;;;;7.05;5.45;;;;;;;21.48;82.57;100368.63;6242439;22;20020;-81
2022/06/17 07:03:39;;;;;;;8.20;5.25;;;;;;;21.42;83.60;100365.00;6242373;23;20023;-81
2022/06/17 07:06:05;;;;;;;6.57;5.72;;;;;;;21.39;84.39;100361.91;6213940;23;20091;-80
2022/06/17 07:08:34;;;;;;;7.22;5.78;;;;;;;21.58;84.38;100367.16;6239900;23;20059;-81
2022/06/17 07:11:00;;;;;;;6.93;5.40;;;;;;;21.83;85.19;100363.44;6240030;23;20035;-82
2022/06/17 07:13:30;;;;;;;6.72;5.88;;;;;;;22.13;83.65;100367.41;6240769;23;20039;-82
2022/06/17 07:15:56;;;;;;;8.93;6.30;;;;;;;22.27;83.32;100355.13;6213975;23;20016;-83
2022/06/17 07:18:32;;;;;;;7.78;5.80;;;;;;;22.35;82.67;100366.72;6239844;23;20012;-82
2022/06/17 07:21:01;;;;;;;7.93;5.68;;;;;;;22.37;82.52;100361.31;6240811;23;20023;-83
2022/06/17 07:23:30;;;;;;;8.43;6.38;;;;;;;22.25;82.83;100349.22;6241822;23;20438;-83
2022/06/17 07:26:02;;;;;;;7.45;6.03;;;;;;;22.21;83.96;100357.16;6215081;23;20016;-83
2022/06/17 07:28:28;;;;;;;7.60;6.03;;;;;;;22.34;83.68;100353.84;6241859;23;20019;-83
2022/06/17 07:30:54;;;;;;;6.18;5.57;;;;;;;22.66;81.08;100357.22;6215064;23;20016;-83
2022/06/17 07:33:21;;;;;;;7.70;5.75;;;;;;;22.83;78.07;100352.41;6243049;23;20015;-83
2022/06/17 07:35:53;;;;;;;9.63;6.30;;;;;;;22.80;77.95;100350.59;6241962;23;20568;-83
2022/06/17 07:41:06;;;;;;;6.43;5.75;;;;;;;23.37;76.02;100352.09;6242081;23;20087;-83
2022/06/17 07:43:32;;;;;;;7.05;6.35;;;;;;;23.48;74.00;100357.75;6214799;23;20087;-84
2022/06/17 07:45:58;;;;;;;9.00;5.93;;;;;;;23.37;73.69;100357.75;6241335;23;20055;-83
2022/06/17 07:48:24;;;;;;;7.70;5.55;;;;;;;23.72;74.21;100351.47;6242145;23;20503;-83
2022/06/17 07:50:50;;;;;;;8.30;6.00;;;;;;;23.78;73.54;100353.00;6242408;23;20059;-84
2022/06/17 07:53:16;;;;;;;8.98;6.07;;;;;;;23.83;71.57;100359.94;6213938;23;20030;-84
2022/06/17 07:55:42;;;;;;;7.15;5.38;;;;;;;23.86;72.25;100353.97;6241530;23;20013;-83
2022/06/17 07:58:10;;;;;;;7.07;5.72;;;;;;;23.85;71.93;100360.97;6241501;23;20020;-82
2022/06/17 08:00:41;;;;;;;8.27;5.88;;;;;;;23.92;72.55;100356.81;6241510;23;20430;-83
2022/06/17 08:03:07;;;;;;;7.93;6.32;;;;;;;24.05;71.02;100366.28;6241508;22;20020;-84
2022/06/17 08:05:33;;;;;;;7.47;6.05;;;;;;;23.82;71.23;100364.06;6190018;23;20500;-84
2022/06/17 08:08:03;;;;;;;8.15;6.15;;;;;;;23.68;72.55;100363.09;6241308;23;20083;-84
2022/06/17 08:10:31;;;;;;;7.13;6.07;;;;;;;23.96;73.82;100375.06;6216334;23;20469;-83
2022/06/17 08:12:56;;;;;;;7.35;5.90;;;;;;;24.11;71.55;100380.41;6241970;23;20008;-84
2022/06/17 08:15:22;;;;;;;9.88;6.38;;;;;;;24.22;71.13;100379.63;6241979;23;20477;-84
2022/06/17 08:17:48;;;;;;;7.57;5.70;;;;;;;24.41;71.28;100381.31;6241978;23;20042;-84
2022/06/17 08:20:26;;;;;;;7.75;5.95;;;;;;;24.42;71.32;100360.19;6243865;23;20008;-84
2022/06/17 08:22:52;;;;;;;6.97;5.80;;;;;;;24.25;71.02;100361.56;6243706;23;20020;-84
2022/06/17 08:25:18;;;;;;;6.45;5.68;;;;;;;24.46;70.77;100374.06;6192611;23;20370;-84
2022/06/17 08:28:03;;;;;;;7.75;5.68;;;;;;;24.81;70.36;100371.22;6243753;23;20069;-84
2022/06/17 08:30:32;;;;;;;6.82;5.03;;;;;;;24.83;69.85;100362.94;6244786;23;20059;-84
2022/06/17 08:32:58;;;;;;;5.88;5.13;;;;;;;25.05;68.10;100371.31;6243007;23;20009;-84
2022/06/17 08:35:28;;;;;;;7.45;5.63;;;;;;;25.30;67.83;100371.34;6244877;23;20011;-84
2022/06/17 08:37:56;;;;;;;7.05;5.43;;;;;;;25.34;66.46;100380.34;6243873;23;20027;-84
2022/06/17 08:40:35;;;;;;;8.73;5.57;;;;;;;25.48;67.10;100381.97;6217505;23;20012;-85
2022/06/17 08:43:01;;;;;;;6.65;5.38;;;;;;;25.51;66.40;100380.94;6243328;23;20023;-85
2022/06/17 08:45:32;;;;;;;6.65;5.10;;;;;;;25.73;66.33;100379.94;6243515;23;20008;-84
2022/06/17 08:48:26;;;;;;;6.53;5.82;;;;;;;25.79;66.77;100384.25;6243120;23;20008;-84
2022/06/17 08:51:12;;;;;;;8.25;5.60;;;;;;;26.10;66.28;100382.06;6216863;23;20062;-84
2022/06/17 08:53:56;;;;;;;7.47;5.88;;;;;;;26.40;64.44;100382.72;6242993;23;20018;-84
2022/06/17 08:56:36;;;;;;;6.68;5.47;;;;;;;26.35;63.56;100387.19;6244340;23;20012;-84
2022/06/17 08:59:15;;;;;;;7.82;5.35;;;;;;;26.26;64.36;100396.09;6216827;23;20457;-84
2022/06/17 09:02:01;;;;;;;9.48;5.40;;;;;;;26.35;63.65;100409.16;6242557;22;20016;-84
2022/06/17 09:04:55;;;;;;;7.00;5.18;;;;;;;26.41;60.71;100416.28;6243562;23;20020;-82
2022/06/17 09:07:29;;;;;;;6.68;5.07;;;;;;;26.36;60.90;100422.09;6216858;23;20020;-84
2022/06/17 09:10:05;;;;;;;7.07;5.20;;;;;;;26.14;60.03;100410.97;6243287;23;20016;-84
2022/06/17 09:12:44;;;;;;;5.40;4.90;;;;;;;26.04;61.37;100424.78;6243828;23;20019;-84
2022/06/17 09:15:16;;;;;;;7.00;4.55;;;;;;;26.52;62.12;100432.47;6216352;23;20019;-84
2022/06/17 09:18:06;;;;;;;6.30;4.88;;;;;;;26.82;60.20;100423.72;6242039;23;20087;-84
2022/06/17 09:20:36;;;;;;;6.50;4.82;;;;;;;26.99;59.19;100437.72;6239387;23;20047;-84
2022/06/17 09:23:03;;;;;;;5.72;4.65;;;;;;;26.74;57.48;100446.34;6241539;23;20016;-85
2022/06/17 09:25:41;;;;;;;10.40;4.75;;;;;;;26.77;58.72;100433.88;6242398;23;20027;-84
2022/06/17 09:28:14;;;;;;;6.18;4.65;;;;;;;27.11;58.05;100451.25;6241764;23;20022;-85
2022/06/17 09:30:46;;;;;;;7.15;4.70;;;;;;;27.19;58.76;100448.53;6215611;23;20050;-84
2022/06/17 09:33:18;;;;;;;8.53;5.00;;;;;;;27.17;57.49;100446.25;6188988;23;20012;-85
2022/06/17 09:36:20;;;;;;;6.90;4.78;;;;;;;26.95;57.91;100442.97;6214744;23;20045;-85
2022/06/17 09:39:04;;;;;;;6.38;4.90;;;;;;;27.20;58.83;100450.84;6234491;23;20023;-84
2022/06/17 09:41:40;;;;;;;9.00;4.60;;;;;;;27.32;55.30;100454.25;6215263;23;20020;-84
2022/06/17 09:44:24;;;;;;;6.00;4.38;;;;;;;27.56;53.67;100456.97;6213567;23;20024;-84
2022/06/17 09:46:51;;;;;;;6.55;4.30;;;;;;;27.66;52.37;100454.47;6163545;23;20442;-85
2022/06/17 09:49:19;;;;;;;5.70;4.18;;;;;;;27.54;51.39;100456.75;6212664;23;20008;-85
2022/06/17 09:52:05;;;;;;;5.45;4.10;;;;;;;27.52;52.35;100450.06;6240164;23;20016;-84
2022/06/17 09:54:35;;;;;;;5.50;4.40;;;;;;;27.51;50.04;100455.00;6214264;23;20514;-84
2022/06/17 09:57:18;;;;;;;6.68;4.40;;;;;;;27.42;50.19;100458.22;6213078;23;20012;-84
2022/06/17 09:59:47;;;;;;;6.78;3.92;;;;;;;27.69;50.18;100470.47;6215181;23;20414;-83
2022/06/17 10:02:27;;;;;;;6.22;3.72;;;;;;;27.80;47.75;100468.19;6188875;23;20047;-83
2022/06/17 10:04:54;;;;;;;7.07;4.20;;;;;;;27.78;49.74;100462.25;6212064;23;20091;-83
2022/06/17 10:07:36;;;;;;;7.03;4.00;;;;;;;28.00;51.31;100466.75;6213842;23;20008;-84
2022/06/17 10:10:09;;;;;;;6.25;4.40;;;;;;;28.07;48.72;100451.06;6213642;23;20013;-84
2022/06/17 10:12:41;;;;;;;7.35;4.30;;;;;;;28.18;48.79;100459.44;6213641;23;20020;-84
2022/06/17 10:15:38;;;;;;;4.50;4.05;;;;;;;28.46;46.58;100456.00;6241105;23;20016;-84
2022/06/17 10:21:22;;;;;;;6.97;4.40;;;;;;;28.41;47.66;100463.34;6240799;23;20350;-84
2022/06/17 10:24:08;;;;;;;4.72;4.10;;;;;;;28.42;48.26;100450.63;6241406;23;20020;-84
2022/06/17 10:26:44;;;;;;;7.30;4.43;;;;;;;28.50;46.18;100450.72;6239949;23;20019;-84
2022/06/17 10:29:31;;;;;;;7.45;4.00;;;;;;;28.72;44.60;100458.78;6240368;23;20012;-84
2022/06/17 10:31:58;;;;;;;6.25;4.10;;;;;;;28.77;44.77;100457.13;6240369;23;20012;-84
2022/06/17 10:34:31;;;;;;;5.72;4.03;;;;;;;28.90;44.65;100459.94;6240567;23;20066;-84
2022/06/17 10:37:00;;;;;;;4.25;3.75;;;;;;;28.81;43.41;100469.75;6241131;23;20062;-84
2022/06/17 10:39:27;;;;;;;7.22;3.92;;;;;;;28.61;42.49;100465.50;6214894;23;20012;-84
2022/06/17 10:41:53;;;;;;;7.38;4.10;;;;;;;28.39;42.83;100465.97;6216155;23;20004;-84
2022/06/17 10:44:23;;;;;;;5.35;3.88;;;;;;;28.32;44.34;100451.63;6216395;23;20016;-84
2022/06/17 10:46:57;;;;;;;6.43;3.83;;;;;;;28.43;45.95;100443.59;6215800;23;20446;-84
2022/06/17 10:49:31;;;;;;;5.35;4.18;;;;;;;28.76;45.24;100464.16;6216245;23;20061;-84
2022/06/17 10:51:57;;;;;;;4.80;3.95;;;;;;;29.13;44.20;100464.56;6216338;23;20062;-84
2022/06/17 10:54:34;;;;;;;5.30;4.13;;;;;;;29.24;42.50;100452.09;6215686;23;20000;-84
2022/06/17 10:57:09;;;;;;;6.13;3.90;;;;;;;29.27;42.94;100453.84;6242920;23;20187;-84
2022/06/17 10:59:41;;;;;;;4.05;3.65;;;;;;;29.39;42.06;100460.84;6214891;23;20015;-84
2022/06/17 11:02:25;;;;;;;5.47;4.20;;;;;;;29.46;41.41;100463.00;6213670;23;20397;-84
2022/06/17 11:04:54;;;;;;;6.65;4.07;;;;;;;29.29;41.96;100444.72;6240514;23;20251;-84
2022/06/17 11:07:49;;;;;;;5.70;4.05;;;;;;;29.32;41.78;100447.25;6241144;23;20039;-84
2022/06/17 11:10:14;;;;;;;5.30;4.22;;;;;;;29.45;41.49;100447.16;6215726;23;20055;-84
2022/06/17 11:12:42;;;;;;;4.47;4.07;;;;;;;29.42;41.43;100454.00;6242326;23;20019;-84
2022/06/17 11:15:20;;;;;;;5.18;3.85;;;;;;;29.39;41.51;100442.94;6215454;23;20012;-83
2022/06/17 11:17:48;;;;;;;4.57;3.70;;;;;;;29.43;42.66;100437.63;6215614;23;20465;-83
2022/06/17 11:20:20;;;;;;;5.10;3.80;;;;;;;29.75;42.97;100443.00;6216301;23;20016;-83
2022/06/17 11:22:50;;;;;;;5.15;3.95;;;;;;;29.82;40.83;100457.34;6244470;23;20016;-83
2022/06/17 11:25:15;;;;;;;5.85;3.75;;;;;;;29.54;39.33;100443.81;6244625;23;20402;-82
2022/06/17 11:27:42;;;;;;;5.88;4.43;;;;;;;29.33;40.41;100445.91;6244644;23;20019;-81
2022/06/17 11:30:34;;;;;;;6.20;3.92;;;;;;;29.69;41.38;100442.38;6217877;23;20007;-84
2022/06/17 11:33:01;;;;;;;5.15;4.10;;;;;;;29.99;39.38;100449.09;6226103;23;20020;-81
2022/06/17 11:35:37;;;;;;;4.78;4.20;;;;;;;29.88;38.97;100451.53;6243945;23;20028;-85
2022/06/17 11:38:10;;;;;;;6.25;3.95;;;;;;;29.74;39.22;100450.03;6191293;23;20162;-80
2022/06/17 11:40:44;;;;;;;;;;;;;;;29.42;40.50;100441.81;6244184;23;20016;-79
2022/06/17 11:43:31;;;;;;;6.47;4.20;;;;;;;29.64;41.26;100430.53;6217543;23;19918;-78
2022/06/17 11:45:58;;;;;;;5.88;4.05;;;;;;;29.89;41.12;100433.78;6240845;23;20040;-78
2022/06/17 11:48:23;;;;;;;6.18;4.40;;;;;;;29.72;39.64;100435.56;6215662;23;20016;-80
2022/06/17 11:51:06;;;;;;;5.55;4.18;;;;;;;29.57;39.08;100419.06;6214936;23;20316;-80
2022/06/17 11:53:42;;;;;;;5.45;4.63;;;;;;;29.59;40.83;100431.47;6216884;23;20098;-80